Time;durP1;ratioP1;P1;durP2;ratioP2;P2;SDS_P1;SDS_P2;PMS_P1;PMS_P2;Temp;Humidity;BMP_temperature;BMP_pressure;BME280_temperature;BME280_humidity;BME280_pressure;Samples;Min_cycle;Max_cycle;Signal;HPM_P1;HPM_P2
2020/12/28 00:00:45;;;;;;;1.20;0.10;;;;;;;4.33;100.00;97431.69;4967941;28;20547;-80
2020/12/28 00:03:10;;;;;;;1.30;0.10;;;;;;;4.28;100.00;97439.31;4968174;28;20206;-79
2020/12/28 00:05:36;;;;;;;1.20;0.10;;;;;;;4.23;100.00;97434.41;4960140;28;20198;-78
2020/12/28 00:08:02;;;;;;;1.27;0.10;;;;;;;4.16;100.00;97442.47;4969753;28;20265;-79
2020/12/28 00:10:27;;;;;;;1.20;0.10;;;;;;;4.14;100.00;97442.09;4957494;28;20444;-79
2020/12/28 00:12:53;;;;;;;1.33;0.10;;;;;;;4.12;100.00;97425.75;4955705;28;20222;-79
2020/12/28 00:15:27;;;;;;;1.20;0.10;;;;;;;4.25;100.00;97440.09;4955737;28;20183;-79
2020/12/28 00:17:55;;;;;;;1.20;0.00;;;;;;;4.19;100.00;97444.34;4966761;28;20210;-79
2020/12/28 00:20:23;;;;;;;1.17;0.10;;;;;;;4.12;100.00;97434.47;4974903;28;20479;-79
2020/12/28 00:22:49;;;;;;;1.20;0.00;;;;;;;4.22;100.00;97435.56;4973011;28;20549;-79
2020/12/28 00:25:23;;;;;;;1.40;0.07;;;;;;;4.09;100.00;97432.63;4943988;28;20442;-79
2020/12/28 00:27:48;;;;;;;1.20;0.10;;;;;;;4.17;100.00;97433.31;4971548;28;20486;-79
2020/12/28 00:30:14;;;;;;;1.40;0.20;;;;;;;4.16;100.00;97432.56;4959275;28;20445;-80
2020/12/28 00:32:40;;;;;;;1.20;0.10;;;;;;;4.19;100.00;97431.03;4973066;28;20307;-79
2020/12/28 00:35:08;;;;;;;1.67;0.20;;;;;;;4.21;100.00;97418.84;5005935;28;20856;-80
2020/12/28 00:37:33;;;;;;;1.20;0.10;;;;;;;4.06;100.00;97433.41;5012395;28;20458;-80
2020/12/28 00:39:59;;;;;;;1.20;0.10;;;;;;;4.22;100.00;97436.31;5009867;28;20447;-79
2020/12/28 00:42:24;;;;;;;1.20;0.10;;;;;;;4.28;100.00;97434.00;5011226;28;20212;-79
2020/12/28 00:44:51;;;;;;;1.20;0.00;;;;;;;4.31;100.00;97422.56;5015478;28;20243;-80
2020/12/28 00:47:17;;;;;;;1.40;0.20;;;;;;;4.31;100.00;97425.22;5011790;28;20243;-80
2020/12/28 00:49:43;;;;;;;1.30;0.10;;;;;;;4.44;100.00;97434.25;5012578;28;20452;-80
2020/12/28 00:52:08;;;;;;;1.20;0.00;;;;;;;4.34;100.00;97429.75;5014194;28;20464;-80
2020/12/28 00:54:34;;;;;;;1.20;0.00;;;;;;;4.48;100.00;97432.31;5015005;28;20466;-79
2020/12/28 00:57:00;;;;;;;1.20;0.00;;;;;;;4.55;100.00;97426.91;5007970;28;20194;-80
2020/12/28 00:59:27;;;;;;;1.20;0.00;;;;;;;4.43;100.00;97435.41;5002115;28;20187;-79
2020/12/28 01:01:57;;;;;;;1.10;0.00;;;;;;;4.43;100.00;97427.41;4996975;28;21006;-79
2020/12/28 01:04:25;;;;;;;1.13;0.07;;;;;;;4.43;100.00;97430.09;4993949;28;20447;-80
2020/12/28 01:06:55;;;;;;;1.20;0.10;;;;;;;4.42;100.00;97429.31;5011115;28;20444;-80
2020/12/28 01:09:43;;;;;;;1.10;0.00;;;;;;;4.58;100.00;97423.47;5004352;28;20448;-79
2020/12/28 01:12:08;;;;;;;1.10;0.10;;;;;;;4.51;100.00;97445.59;5009775;28;20448;-80
2020/12/28 01:14:37;;;;;;;1.10;0.00;;;;;;;4.64;100.00;97440.56;5001984;28;20221;-79
2020/12/28 01:17:03;;;;;;;1.50;0.10;;;;;;;4.68;100.00;97432.53;5012743;28;20949;-80
2020/12/28 01:19:31;;;;;;;1.10;0.10;;;;;;;4.75;100.00;97427.13;4995877;28;20185;-80
2020/12/28 01:22:17;;;;;;;1.20;0.10;;;;;;;4.62;100.00;97436.75;5018587;28;20498;-80
2020/12/28 01:24:44;;;;;;;1.10;0.10;;;;;;;4.73;100.00;97435.50;4892403;29;20779;-80
2020/12/28 01:27:09;;;;;;;1.10;0.00;;;;;;;4.69;100.00;97436.69;4919890;29;20527;-79
2020/12/28 01:29:35;;;;;;;1.30;0.20;;;;;;;4.76;100.00;97436.63;4922606;29;20203;-80
2020/12/28 01:32:01;;;;;;;1.20;0.10;;;;;;;4.82;100.00;97433.13;4920020;29;20191;-80
2020/12/28 01:35:02;;;;;;;1.10;0.00;;;;;;;4.68;100.00;97438.63;4930128;29;20290;-81
2020/12/28 01:37:29;;;;;;;1.10;0.10;;;;;;;4.64;100.00;97434.47;4934124;29;20459;-80
2020/12/28 01:39:54;;;;;;;1.10;0.10;;;;;;;4.63;100.00;97424.97;4941413;29;20444;-81
2020/12/28 01:42:21;;;;;;;1.10;0.10;;;;;;;4.52;100.00;97423.16;4933726;29;20285;-80
2020/12/28 01:44:52;;;;;;;1.17;0.07;;;;;;;4.65;100.00;97430.63;4913194;29;20453;-82
2020/12/28 01:47:25;;;;;;;1.40;0.20;;;;;;;4.62;100.00;97432.19;4934756;29;21003;-81
2020/12/28 01:49:56;;;;;;;1.20;0.00;;;;;;;4.72;100.00;97425.25;4928859;29;20483;-80
2020/12/28 01:52:21;;;;;;;1.20;0.10;;;;;;;4.66;100.00;97427.59;4934907;29;20485;-81
2020/12/28 01:54:48;;;;;;;1.10;0.10;;;;;;;4.66;100.00;97432.91;4925830;29;20561;-81
2020/12/28 01:57:17;;;;;;;1.17;0.10;;;;;;;4.69;100.00;97434.78;4917215;29;20447;-79
2020/12/28 01:59:51;;;;;;;1.20;0.10;;;;;;;4.71;100.00;97445.81;4932370;29;20451;-80
2020/12/28 02:02:30;;;;;;;1.20;0.10;;;;;;;4.78;100.00;97432.41;4989460;28;20443;-80
2020/12/28 02:04:56;;;;;;;1.10;0.10;;;;;;;4.66;100.00;97440.16;5011791;28;20442;-80
2020/12/28 02:07:26;;;;;;;1.30;0.10;;;;;;;4.56;100.00;97428.44;5015865;28;20447;-81
2020/12/28 02:09:53;;;;;;;1.20;0.10;;;;;;;4.62;100.00;97418.88;4994070;28;20492;-81
2020/12/28 02:12:20;;;;;;;1.20;0.10;;;;;;;4.49;100.00;97407.19;5003898;28;20539;-81
2020/12/28 02:14:45;;;;;;;1.17;0.00;;;;;;;4.65;100.00;97415.41;5009563;28;21006;-80
2020/12/28 02:17:33;;;;;;;1.40;0.10;;;;;;;4.70;100.00;97401.66;5000892;28;20431;-81
2020/12/28 02:20:16;;;;;;;1.20;0.10;;;;;;;4.75;100.00;97397.78;5012510;28;20478;-81
2020/12/28 02:22:44;;;;;;;1.20;0.10;;;;;;;4.68;100.00;97416.53;5008262;28;20468;-82
2020/12/28 02:25:10;;;;;;;1.40;0.10;;;;;;;4.66;100.00;97411.59;4996466;28;20441;-81
2020/12/28 02:27:37;;;;;;;1.20;0.10;;;;;;;4.81;100.00;97404.97;5006138;28;20288;-81
2020/12/28 02:30:04;;;;;;;1.20;0.00;;;;;;;4.78;100.00;97408.41;4998722;28;20455;-82
2020/12/28 02:32:36;;;;;;;1.20;0.10;;;;;;;4.72;100.00;97407.38;5013022;28;20470;-82
2020/12/28 02:35:31;;;;;;;1.23;0.07;;;;;;;4.78;100.00;97407.69;5002744;28;20449;-80
2020/12/28 02:37:57;;;;;;;1.10;0.10;;;;;;;4.74;100.00;97409.63;5014374;28;20450;-80
2020/12/28 02:40:24;;;;;;;1.30;0.13;;;;;;;4.86;100.00;97411.78;5014280;28;20967;-81
2020/12/28 02:42:50;;;;;;;1.20;0.10;;;;;;;4.75;100.00;97406.56;5013133;28;20463;-80
2020/12/28 02:45:35;;;;;;;1.20;0.10;;;;;;;4.95;100.00;97412.84;4998269;28;20209;-81
2020/12/28 02:48:19;;;;;;;1.20;0.10;;;;;;;4.81;100.00;97404.22;5006927;28;20449;-80
2020/12/28 02:51:03;;;;;;;1.10;0.00;;;;;;;4.79;100.00;97415.28;5005098;28;20492;-81
2020/12/28 02:53:47;;;;;;;1.20;0.10;;;;;;;4.69;100.00;97410.81;5005625;28;20483;-79
2020/12/28 02:56:31;;;;;;;1.20;0.00;;;;;;;4.83;100.00;97425.91;5015083;28;20838;-80
2020/12/28 02:59:15;;;;;;;1.17;0.10;;;;;;;4.90;100.00;97420.47;5024460;28;20511;-80
2020/12/28 03:01:59;;;;;;;1.40;0.10;;;;;;;4.96;100.00;97422.34;5007339;28;20508;-80
2020/12/28 03:04:51;;;;;;;1.20;0.10;;;;;;;4.99;100.00;97423.47;5010928;28;20435;-81
2020/12/28 03:07:35;;;;;;;1.27;0.10;;;;;;;5.00;100.00;97412.38;5005331;28;20442;-81
2020/12/28 03:10:20;;;;;;;1.10;0.10;;;;;;;4.85;100.00;97410.25;5002005;28;21006;-81
2020/12/28 03:13:12;;;;;;;1.13;0.10;;;;;;;4.88;100.00;97418.22;5000731;28;20461;-81
2020/12/28 03:15:56;;;;;;;1.10;0.10;;;;;;;5.01;100.00;97411.25;5003119;28;20471;-81
2020/12/28 03:18:40;;;;;;;1.37;0.10;;;;;;;4.87;100.00;97410.63;5010754;28;20534;-82
2020/12/28 03:21:24;;;;;;;1.67;0.10;;;;;;;5.01;100.00;97413.16;5012344;28;20817;-81
2020/12/28 03:24:08;;;;;;;1.20;0.10;;;;;;;5.10;100.00;97424.84;5005112;28;20527;-82
2020/12/28 03:26:52;;;;;;;1.10;0.10;;;;;;;5.06;100.00;97424.13;5006013;28;20819;-81
2020/12/28 03:29:57;;;;;;;1.30;0.10;;;;;;;5.17;100.00;97414.09;5005535;28;20443;-82
2020/12/28 03:32:40;;;;;;;1.20;0.10;;;;;;;5.19;100.00;97413.69;4956722;29;20522;-81
2020/12/28 03:35:25;;;;;;;1.20;0.00;;;;;;;5.09;100.00;97420.66;4946077;29;20534;-80
2020/12/28 03:38:09;;;;;;;1.20;0.10;;;;;;;5.08;100.00;97421.81;4959428;29;20477;-80
2020/12/28 03:40:53;;;;;;;1.10;0.00;;;;;;;5.14;100.00;97411.47;4942776;29;20560;-81
2020/12/28 03:43:37;;;;;;;1.10;0.10;;;;;;;5.14;100.00;97406.91;4957929;29;20473;-81
2020/12/28 03:46:32;;;;;;;1.30;0.10;;;;;;;5.09;100.00;97420.66;4937758;29;20446;-82
2020/12/28 03:49:16;;;;;;;1.10;0.10;;;;;;;5.01;100.00;97424.56;4955463;29;20528;-81
2020/12/28 03:52:00;;;;;;;1.10;0.10;;;;;;;5.04;100.00;97420.34;4961285;29;20453;-81
2020/12/28 03:54:55;;;;;;;1.13;0.10;;;;;;;5.06;100.00;97429.47;4929749;29;20856;-81
2020/12/28 03:57:39;;;;;;;1.20;0.10;;;;;;;5.07;100.00;97425.63;4943952;29;20438;-80
2020/12/28 04:00:23;;;;;;;1.13;0.10;;;;;;;5.05;100.00;97430.59;4960300;29;20448;-81
2020/12/28 04:03:12;;;;;;;1.30;0.10;;;;;;;5.07;100.00;97430.22;4933062;29;20458;-80
2020/12/28 04:05:56;;;;;;;1.20;0.10;;;;;;;5.21;100.00;97420.16;4955144;29;20497;-81
2020/12/28 04:08:40;;;;;;;1.20;0.00;;;;;;;5.24;100.00;97415.94;4952093;28;20451;-82
2020/12/28 04:11:24;;;;;;;1.20;0.10;;;;;;;5.10;100.00;97414.19;5007103;28;20454;-81
2020/12/28 04:14:15;;;;;;;1.40;0.10;;;;;;;5.26;100.00;97410.97;5000122;28;20554;-81
2020/12/28 04:16:41;;;;;;;1.20;0.10;;;;;;;5.21;100.00;97409.47;4998769;28;20877;-80
2020/12/28 04:19:06;;;;;;;1.10;0.00;;;;;;;5.11;100.00;97404.28;5006690;28;20548;-82
2020/12/28 04:21:32;;;;;;;1.20;0.10;;;;;;;5.26;100.00;97394.97;5004525;28;20182;-80
2020/12/28 04:23:57;;;;;;;1.10;0.00;;;;;;;5.39;100.00;97398.59;5003842;28;20243;-80
2020/12/28 04:26:23;;;;;;;1.10;0.10;;;;;;;5.28;100.00;97398.72;5004203;28;20177;-81
2020/12/28 04:28:48;;;;;;;1.10;0.10;;;;;;;5.42;100.00;97401.22;4986515;28;20177;-82
2020/12/28 04:31:14;;;;;;;1.30;0.10;;;;;;;5.47;100.00;97390.13;5013107;28;20178;-80
2020/12/28 04:33:40;;;;;;;1.13;0.10;;;;;;;5.30;100.00;97390.34;5005909;28;20219;-81
2020/12/28 04:36:05;;;;;;;1.20;0.10;;;;;;;5.25;100.00;97388.09;5015799;28;20279;-81
2020/12/28 04:38:31;;;;;;;1.10;0.00;;;;;;;5.30;100.00;97385.72;5009063;28;20191;-82
2020/12/28 04:40:57;;;;;;;2.03;0.20;;;;;;;5.41;100.00;97401.63;5013892;28;20480;-82
2020/12/28 04:43:25;;;;;;;1.10;0.00;;;;;;;5.33;100.00;97400.97;5004114;28;20193;-82
2020/12/28 04:45:56;;;;;;;1.77;0.10;;;;;;;5.34;100.00;97402.44;4998639;28;20446;-82
2020/12/28 04:48:22;;;;;;;1.20;0.10;;;;;;;5.35;100.00;97405.88;4987464;28;20444;-82
2020/12/28 04:50:49;;;;;;;1.47;0.27;;;;;;;5.38;100.00;97408.50;5009104;28;20416;-83
2020/12/28 04:53:14;;;;;;;1.20;0.10;;;;;;;5.39;100.00;97410.03;5014206;28;20213;-82
2020/12/28 04:55:40;;;;;;;1.10;0.10;;;;;;;5.42;100.00;97419.13;5020924;28;20519;-82
2020/12/28 04:58:05;;;;;;;1.10;0.10;;;;;;;5.38;100.00;97424.50;5006010;28;20186;-82
2020/12/28 05:00:31;;;;;;;1.10;0.00;;;;;;;5.43;100.00;97420.66;5007329;28;20196;-82
2020/12/28 05:02:56;;;;;;;1.20;0.10;;;;;;;5.57;100.00;97417.06;5005218;28;20200;-81
2020/12/28 05:05:22;;;;;;;1.10;0.00;;;;;;;5.28;100.00;97411.31;5010086;28;20227;-82
2020/12/28 05:07:51;;;;;;;1.17;0.00;;;;;;;5.41;100.00;97428.28;5015582;28;20250;-81
2020/12/28 05:10:25;;;;;;;1.13;0.07;;;;;;;5.38;100.00;97429.09;5016701;28;20196;-82
2020/12/28 05:12:50;;;;;;;1.10;0.00;;;;;;;5.39;100.00;97436.72;5016248;28;20517;-82
2020/12/28 05:15:16;;;;;;;1.20;0.10;;;;;;;5.33;100.00;97435.63;5009192;28;20476;-81
2020/12/28 05:17:42;;;;;;;1.10;0.10;;;;;;;5.32;100.00;97430.69;5020268;28;20180;-80
2020/12/28 05:20:07;;;;;;;1.30;0.10;;;;;;;5.40;100.00;97435.53;5015127;28;20192;-81
2020/12/28 05:22:33;;;;;;;1.10;0.10;;;;;;;5.27;100.00;97428.47;5006741;28;20197;-82
2020/12/28 05:24:59;;;;;;;1.30;0.20;;;;;;;5.07;100.00;97435.56;5009163;28;20204;-81
2020/12/28 05:27:24;;;;;;;1.10;0.00;;;;;;;5.02;100.00;97428.75;5023879;28;20173;-81
2020/12/28 05:29:51;;;;;;;1.23;0.10;;;;;;;5.14;100.00;97430.13;5020440;28;20440;-81
2020/12/28 05:32:18;;;;;;;1.10;0.07;;;;;;;5.05;100.00;97427.94;5012974;28;20223;-81
2020/12/28 05:34:46;;;;;;;1.10;0.00;;;;;;;5.17;100.00;97445.34;5010928;28;20527;-81
2020/12/28 05:37:13;;;;;;;1.17;0.10;;;;;;;4.96;100.00;97441.00;5017506;28;20455;-80
2020/12/28 05:39:40;;;;;;;1.20;0.10;;;;;;;4.82;100.00;97443.06;5005640;28;20463;-81
2020/12/28 05:42:09;;;;;;;1.20;0.07;;;;;;;5.01;100.00;97448.56;5019160;28;20478;-80
2020/12/28 05:44:36;;;;;;;1.70;0.10;;;;;;;4.98;100.00;97448.59;5009498;28;20441;-81
2020/12/28 05:47:05;;;;;;;1.20;0.10;;;;;;;5.14;100.00;97448.81;5008702;28;20452;-81
2020/12/28 05:49:34;;;;;;;1.40;0.10;;;;;;;5.10;100.00;97432.84;5007192;28;20479;-81
2020/12/28 05:52:01;;;;;;;1.10;0.00;;;;;;;5.25;100.00;97426.19;5004910;28;20440;-81
2020/12/28 05:54:28;;;;;;;1.10;0.10;;;;;;;5.39;100.00;97425.28;5002710;28;20507;-80
2020/12/28 05:56:57;;;;;;;1.20;0.10;;;;;;;5.40;100.00;97427.53;5003862;28;20453;-81
2020/12/28 05:59:23;;;;;;;1.50;0.10;;;;;;;5.22;100.00;97421.69;5005466;28;20984;-82
2020/12/28 06:01:50;;;;;;;1.10;0.00;;;;;;;5.23;100.00;97411.75;5008278;28;20476;-82
2020/12/28 06:04:17;;;;;;;1.20;0.20;;;;;;;5.04;99.56;97418.44;5004770;28;20228;-82
2020/12/28 06:06:43;;;;;;;1.20;0.10;;;;;;;4.99;98.84;97418.13;5012976;28;20459;-80
2020/12/28 06:09:10;;;;;;;1.10;0.10;;;;;;;5.01;98.31;97407.81;5021767;28;20443;-82
2020/12/28 06:11:36;;;;;;;1.20;0.10;;;;;;;4.99;98.14;97421.56;5016852;28;20443;-82
2020/12/28 06:14:19;;;;;;;1.20;0.10;;;;;;;4.70;97.90;97423.00;5020222;28;20487;-81
2020/12/28 06:16:46;;;;;;;1.30;0.10;;;;;;;4.62;98.43;97424.19;5007826;28;20514;-81
2020/12/28 06:19:23;;;;;;;1.10;0.00;;;;;;;4.85;98.63;97437.69;5023558;28;20545;-81
2020/12/28 06:21:49;;;;;;;1.30;0.20;;;;;;;4.83;99.02;97453.31;5013511;28;20443;-81
2020/12/28 06:24:54;;;;;;;1.10;0.00;;;;;;;4.90;98.26;97447.91;5024230;28;20456;-80
2020/12/28 06:27:26;;;;;;;1.17;0.07;;;;;;;4.80;98.04;97461.34;5010753;28;20455;-82
2020/12/28 06:29:51;;;;;;;2.07;0.20;;;;;;;4.67;97.57;97471.72;5020679;28;20505;-81
2020/12/28 06:32:17;;;;;;;1.10;0.10;;;;;;;4.67;97.38;97465.63;5008964;28;20464;-80
2020/12/28 06:34:46;;;;;;;1.10;0.00;;;;;;;4.70;97.18;97478.19;5019813;28;20715;-80
2020/12/28 06:37:14;;;;;;;1.20;0.10;;;;;;;4.64;96.77;97474.44;5009215;28;20216;-81
2020/12/28 06:39:39;;;;;;;1.10;0.10;;;;;;;4.78;96.44;97471.66;5017705;28;20483;-80
2020/12/28 06:42:14;;;;;;;1.73;0.27;;;;;;;4.81;95.18;97468.19;5006447;28;20433;-80
2020/12/28 06:44:42;;;;;;;1.10;0.10;;;;;;;4.67;95.00;97471.72;5015967;28;20286;-81
2020/12/28 06:47:22;;;;;;;1.20;0.10;;;;;;;4.73;94.94;97464.81;5018530;28;20498;-81
2020/12/28 06:49:49;;;;;;;1.10;0.00;;;;;;;4.88;95.55;97452.88;5020351;28;20446;-81
2020/12/28 06:52:15;;;;;;;1.20;0.10;;;;;;;4.70;94.01;97454.97;5012061;28;20516;-81
2020/12/28 06:54:41;;;;;;;1.10;0.10;;;;;;;4.82;94.35;97451.78;5009601;28;20522;-82
2020/12/28 06:57:08;;;;;;;1.50;0.10;;;;;;;5.05;93.57;97448.53;5013410;28;20235;-80
2020/12/28 06:59:34;;;;;;;1.10;0.20;;;;;;;4.80;94.77;97446.09;5014990;28;20452;-79
2020/12/28 07:02:02;;;;;;;1.60;0.10;;;;;;;4.95;94.72;97452.06;5013946;28;20478;-81
2020/12/28 07:04:36;;;;;;;1.20;0.10;;;;;;;4.82;94.80;97462.44;5008567;28;20440;-81
2020/12/28 07:07:04;;;;;;;1.37;0.20;;;;;;;4.84;95.17;97459.41;5010397;28;20444;-81
2020/12/28 07:09:29;;;;;;;1.10;0.10;;;;;;;5.01;94.56;97472.56;5007334;28;20424;-81
2020/12/28 07:11:55;;;;;;;1.10;0.10;;;;;;;4.94;93.40;97472.63;5008141;28;20468;-79
2020/12/28 07:14:21;;;;;;;1.20;0.13;;;;;;;4.99;93.65;97468.78;5005894;28;20189;-81
2020/12/28 07:16:56;;;;;;;1.40;0.30;;;;;;;4.90;92.96;97471.88;5008073;28;20197;-80
2020/12/28 07:19:22;;;;;;;1.10;0.10;;;;;;;5.00;93.35;97480.94;5007490;28;20523;-80
2020/12/28 07:21:47;;;;;;;1.30;0.20;;;;;;;4.97;92.49;97492.41;5007010;28;20439;-81
2020/12/28 07:24:13;;;;;;;1.10;0.10;;;;;;;4.91;93.05;97496.66;5009328;28;20451;-81
2020/12/28 07:26:41;;;;;;;1.23;0.10;;;;;;;4.89;93.12;97499.72;5010448;28;20193;-81
2020/12/28 07:29:13;;;;;;;1.40;0.30;;;;;;;4.91;93.04;97496.66;5008856;28;20261;-81
2020/12/28 07:31:39;;;;;;;1.20;0.10;;;;;;;4.98;93.35;97489.34;5018027;28;20444;-79
2020/12/28 07:34:05;;;;;;;1.50;0.10;;;;;;;5.09;92.88;97487.31;5014864;28;20467;-80
2020/12/28 07:36:32;;;;;;;1.30;0.10;;;;;;;5.15;93.35;97485.75;5007613;28;20443;-80
2020/12/28 07:38:58;;;;;;;1.20;0.20;;;;;;;5.20;93.22;97488.00;5019524;28;20177;-80
2020/12/28 07:41:44;;;;;;;1.50;0.20;;;;;;;5.22;93.21;97476.91;5021810;28;20438;-81
2020/12/28 07:44:15;;;;;;;1.20;0.10;;;;;;;5.24;92.21;97475.38;4971175;28;20449;-80
2020/12/28 07:47:01;;;;;;;1.10;0.10;;;;;;;5.26;92.25;97473.06;4982637;28;20473;-81
2020/12/28 07:49:29;;;;;;;1.10;0.10;;;;;;;5.07;93.35;97494.22;4967738;28;20449;-81
2020/12/28 07:52:09;;;;;;;1.10;0.10;;;;;;;5.19;93.40;97486.47;4970186;28;20504;-79
2020/12/28 07:54:44;;;;;;;1.20;0.10;;;;;;;5.23;92.81;97476.50;4969659;28;20638;-80
2020/12/28 07:57:22;;;;;;;1.20;0.20;;;;;;;5.16;92.41;97476.59;4971319;28;20540;-80
2020/12/28 08:00:04;;;;;;;1.10;0.00;;;;;;;5.30;92.32;97473.03;4939199;28;20532;-80
2020/12/28 08:02:38;;;;;;;1.10;0.10;;;;;;;5.33;92.24;97469.53;4966600;28;20473;-81
2020/12/28 08:05:04;;;;;;;1.20;0.10;;;;;;;5.36;92.37;97479.44;4946798;28;20437;-81
2020/12/28 08:07:34;;;;;;;1.10;0.10;;;;;;;5.21;92.11;97478.81;4963866;28;20934;-80
2020/12/28 08:10:00;;;;;;;2.13;0.20;;;;;;;5.21;92.19;97494.81;4952249;28;20449;-80
2020/12/28 08:12:29;;;;;;;1.50;0.20;;;;;;;5.24;92.50;97509.28;4970722;28;20560;-81
2020/12/28 08:14:56;;;;;;;1.60;0.20;;;;;;;5.30;92.07;97502.38;4937002;28;20838;-80
2020/12/28 08:17:25;;;;;;;1.20;0.10;;;;;;;5.25;91.66;97492.88;4938100;28;20442;-80
2020/12/28 08:19:51;;;;;;;1.10;0.10;;;;;;;5.19;91.22;97494.47;4969961;28;20457;-81
2020/12/28 08:22:18;;;;;;;1.20;0.20;;;;;;;5.14;91.11;97500.22;5001016;28;20833;-80
2020/12/28 08:24:44;;;;;;;1.30;0.20;;;;;;;5.09;91.03;97505.97;4993447;28;20498;-81
2020/12/28 08:27:10;;;;;;;1.70;0.30;;;;;;;5.12;90.99;97523.09;5006257;28;21721;-81
2020/12/28 08:29:37;;;;;;;1.50;0.20;;;;;;;5.14;91.54;97537.56;4998523;28;20187;-81
2020/12/28 08:32:02;;;;;;;1.50;0.10;;;;;;;4.94;91.40;97536.59;5000935;28;20452;-81
2020/12/28 08:34:30;;;;;;;1.20;0.10;;;;;;;4.92;91.44;97532.81;4991627;28;20483;-81
2020/12/28 08:36:55;;;;;;;1.97;0.30;;;;;;;4.90;91.79;97533.19;4996820;28;20177;-80
2020/12/28 08:39:23;;;;;;;2.17;0.40;;;;;;;4.84;92.22;97534.03;4981861;28;20503;-81
2020/12/28 08:41:53;;;;;;;1.83;0.20;;;;;;;4.83;92.58;97530.59;4989721;28;20188;-81
2020/12/28 08:44:36;;;;;;;2.10;0.27;;;;;;;4.96;92.54;97534.28;5007049;28;20474;-81
2020/12/28 08:47:13;;;;;;;1.10;0.10;;;;;;;4.70;92.77;97523.47;4985352;28;20463;-79
2020/12/28 08:49:45;;;;;;;1.10;0.10;;;;;;;4.42;93.92;97537.75;4985535;28;20530;-81
2020/12/28 08:52:15;;;;;;;1.10;0.10;;;;;;;4.46;94.10;97541.91;4997655;28;20464;-81
2020/12/28 08:54:50;;;;;;;1.13;0.10;;;;;;;4.49;94.84;97543.06;4991237;28;20483;-81
2020/12/28 08:57:30;;;;;;;1.43;0.10;;;;;;;4.37;95.75;97546.16;4998869;28;20451;-81
2020/12/28 08:59:58;;;;;;;1.33;0.20;;;;;;;4.53;95.08;97552.53;4993035;28;20441;-81
2020/12/28 09:02:25;;;;;;;1.10;0.10;;;;;;;4.76;94.75;97545.91;4988373;28;20523;-81
2020/12/28 09:04:51;;;;;;;1.30;0.10;;;;;;;4.64;94.50;97533.03;4996653;28;20522;-81
2020/12/28 09:07:18;;;;;;;1.53;0.30;;;;;;;4.53;95.29;97546.44;4980648;28;20909;-80
2020/12/28 09:09:47;;;;;;;1.57;0.30;;;;;;;4.80;95.00;97554.63;4998935;28;20685;-81
2020/12/28 09:12:13;;;;;;;2.47;0.30;;;;;;;4.81;94.32;97546.22;4994855;28;20432;-81
2020/12/28 09:14:39;;;;;;;2.60;0.40;;;;;;;4.65;95.52;97548.63;4991013;28;20549;-81
2020/12/28 09:17:05;;;;;;;1.20;0.10;;;;;;;4.49;96.11;97548.38;4983416;28;20416;-82
2020/12/28 09:19:31;;;;;;;1.10;0.10;;;;;;;4.54;95.81;97553.28;4999964;28;20440;-82
2020/12/28 09:21:57;;;;;;;1.50;0.30;;;;;;;4.76;95.99;97564.56;5002782;28;20531;-81
2020/12/28 09:24:23;;;;;;;1.10;0.10;;;;;;;4.44;97.23;97554.09;4983673;28;20181;-80
2020/12/28 09:27:09;;;;;;;1.87;0.20;;;;;;;4.67;97.58;97546.34;4989473;28;20445;-82
2020/12/28 09:29:35;;;;;;;1.50;0.17;;;;;;;4.78;98.04;97536.34;4938365;28;20450;-81
2020/12/28 09:32:01;;;;;;;1.50;0.20;;;;;;;4.93;97.31;97553.75;4942055;28;22840;-81
2020/12/28 09:34:26;;;;;;;2.07;0.10;;;;;;;4.80;96.91;97550.03;4936597;28;20481;-81
2020/12/28 09:37:02;;;;;;;1.10;0.10;;;;;;;4.83;96.02;97546.59;4957217;28;20186;-80
2020/12/28 09:39:28;;;;;;;1.20;0.20;;;;;;;4.99;96.50;97546.84;4962302;28;20285;-79
2020/12/28 09:41:54;;;;;;;1.57;0.27;;;;;;;4.88;96.34;97548.84;4959236;28;20533;-81
2020/12/28 09:44:20;;;;;;;1.20;0.17;;;;;;;4.69;96.62;97552.03;4940510;28;20217;-81
2020/12/28 09:46:45;;;;;;;1.20;0.10;;;;;;;4.89;96.94;97552.25;4962564;28;20454;-81
2020/12/28 09:49:11;;;;;;;1.20;0.10;;;;;;;5.04;95.97;97550.97;4950555;28;20958;-82
2020/12/28 09:51:36;;;;;;;2.60;0.30;;;;;;;4.96;95.49;97536.97;4948377;28;20194;-81
2020/12/28 09:54:02;;;;;;;1.53;0.30;;;;;;;5.15;95.73;97544.41;4947526;28;20226;-81
2020/12/28 09:56:27;;;;;;;1.10;0.10;;;;;;;5.27;95.17;97540.47;4955025;28;20182;-81
2020/12/28 09:58:53;;;;;;;1.40;0.20;;;;;;;5.34;94.39;97546.50;4934407;28;20189;-82
2020/12/28 10:01:18;;;;;;;1.10;0.10;;;;;;;5.45;93.74;97549.06;4940277;28;20190;-82
2020/12/28 10:03:44;;;;;;;1.40;0.10;;;;;;;5.41;94.12;97545.69;4936947;28;20198;-82
2020/12/28 10:06:34;;;;;;;1.10;0.10;;;;;;;5.49;93.97;97541.78;4958931;28;20307;-81
2020/12/28 10:09:05;;;;;;;1.30;0.20;;;;;;;5.53;94.10;97539.84;4993967;28;20979;-82
2020/12/28 10:11:31;;;;;;;1.70;0.10;;;;;;;5.62;93.66;97542.78;5002072;28;20566;-82
2020/12/28 10:13:56;;;;;;;1.10;0.10;;;;;;;5.69;94.38;97542.69;5006380;28;20452;-79
2020/12/28 10:16:27;;;;;;;1.30;0.10;;;;;;;5.19;93.84;97533.69;4990350;28;20443;-82
2020/12/28 10:18:53;;;;;;;1.20;0.10;;;;;;;5.28;94.15;97526.75;4989224;28;20747;-81
2020/12/28 10:21:19;;;;;;;1.20;0.20;;;;;;;5.45;94.34;97535.72;5004954;28;20439;-80
2020/12/28 10:23:45;;;;;;;1.13;0.10;;;;;;;5.42;93.54;97531.94;5006279;28;20456;-81
2020/12/28 10:26:21;;;;;;;1.30;0.10;;;;;;;5.40;93.70;97534.25;4992699;28;20495;-81
2020/12/28 10:28:48;;;;;;;1.67;0.20;;;;;;;5.30;93.90;97527.09;4997457;28;20460;-81
2020/12/28 10:31:15;;;;;;;1.30;0.10;;;;;;;5.45;95.28;97525.81;4993940;28;20431;-82
2020/12/28 10:33:42;;;;;;;1.20;0.10;;;;;;;5.40;94.78;97533.50;4996972;28;20476;-82
2020/12/28 10:36:19;;;;;;;1.77;0.20;;;;;;;5.33;94.50;97530.91;5005056;28;20449;-82
2020/12/28 10:38:49;;;;;;;1.10;0.00;;;;;;;5.33;94.96;97537.00;5004138;28;20685;-79
2020/12/28 10:41:15;;;;;;;1.80;0.30;;;;;;;5.54;95.31;97536.00;4999604;28;20448;-81
2020/12/28 10:43:41;;;;;;;1.40;0.10;;;;;;;5.49;93.80;97544.47;4992700;28;20451;-80
2020/12/28 10:46:10;;;;;;;1.50;0.30;;;;;;;5.61;94.32;97549.28;5001437;28;20447;-81
2020/12/28 10:48:36;;;;;;;1.20;0.10;;;;;;;5.64;93.72;97550.38;5002790;28;20445;-81
2020/12/28 10:51:03;;;;;;;1.20;0.20;;;;;;;5.68;94.09;97548.44;4996813;28;20435;-81
2020/12/28 10:53:28;;;;;;;2.87;0.40;;;;;;;5.75;92.91;97554.44;5009136;28;20200;-82
2020/12/28 10:55:54;;;;;;;1.30;0.20;;;;;;;5.65;92.96;97550.00;5000823;28;20777;-82
2020/12/28 10:58:20;;;;;;;1.47;0.13;;;;;;;5.83;93.09;97553.25;5007196;28;20177;-80
2020/12/28 11:00:50;;;;;;;1.40;0.17;;;;;;;6.07;92.67;97562.13;5003936;28;20211;-81
2020/12/28 11:03:15;;;;;;;1.80;0.30;;;;;;;5.79;92.52;97565.09;5000480;28;20215;-80
2020/12/28 11:05:41;;;;;;;2.47;0.43;;;;;;;5.78;92.63;97572.34;5014992;28;20415;-82
2020/12/28 11:08:06;;;;;;;1.90;0.30;;;;;;;5.64;93.21;97561.06;4999189;28;20184;-82
2020/12/28 11:10:32;;;;;;;1.43;0.17;;;;;;;5.74;93.66;97557.53;5007940;28;20632;-81
2020/12/28 11:12:58;;;;;;;1.60;0.20;;;;;;;5.75;94.47;97562.44;5008226;28;20604;-82
2020/12/28 11:15:23;;;;;;;1.90;0.53;;;;;;;5.90;93.83;97553.19;5003586;28;20212;-81
2020/12/28 11:17:49;;;;;;;1.60;0.40;;;;;;;5.91;93.55;97552.00;5003350;28;20220;-81
2020/12/28 11:20:15;;;;;;;1.10;0.10;;;;;;;5.94;94.03;97563.81;5000776;28;20185;-81
2020/12/28 11:22:41;;;;;;;1.30;0.10;;;;;;;5.99;93.26;97553.44;5005963;28;20227;-81
2020/12/28 11:25:07;;;;;;;1.37;0.20;;;;;;;5.79;93.49;97547.16;5006958;28;20523;-81
2020/12/28 11:27:32;;;;;;;2.50;0.30;;;;;;;5.85;94.16;97558.94;5013356;28;20184;-81
2020/12/28 11:29:58;;;;;;;2.37;0.33;;;;;;;5.64;94.59;97559.16;5014185;28;20215;-81
2020/12/28 11:32:24;;;;;;;1.70;0.37;;;;;;;5.75;94.97;97564.38;4998637;28;20232;-81
2020/12/28 11:34:50;;;;;;;1.67;0.40;;;;;;;5.71;95.71;97564.41;5003119;28;20507;-81
2020/12/28 11:37:16;;;;;;;1.10;0.10;;;;;;;5.98;95.10;97564.53;5011130;28;20489;-81
2020/12/28 11:39:42;;;;;;;1.57;0.30;;;;;;;5.83;95.21;97557.78;4999464;28;20518;-80
2020/12/28 11:42:07;;;;;;;1.60;0.20;;;;;;;5.75;95.88;97553.72;5006098;28;20427;-80
2020/12/28 11:44:33;;;;;;;1.20;0.17;;;;;;;5.72;95.96;97547.25;5005868;28;20200;-80
2020/12/28 11:46:59;;;;;;;1.10;0.10;;;;;;;5.56;95.87;97541.69;5005789;28;20192;-81
2020/12/28 11:49:24;;;;;;;1.13;0.13;;;;;;;5.65;95.99;97538.56;5010186;28;20179;-80
2020/12/28 11:52:15;;;;;;;1.10;0.10;;;;;;;5.87;95.58;97534.50;5012209;28;20248;-81